createdAt,value
2022-08-02T00:00:09.551Z,98563.09
2022-08-02T00:02:36.290Z,98550.59
2022-08-02T00:05:02.902Z,98561.16
2022-08-02T00:07:29.406Z,98559.72
2022-08-02T00:09:55.916Z,98561.28
2022-08-02T00:12:22.617Z,98559.50
2022-08-02T00:14:49.145Z,98564.63
2022-08-02T00:17:15.663Z,98566.13
2022-08-02T00:19:42.174Z,98556.38
2022-08-02T00:22:09.142Z,98563.81
2022-08-02T00:24:35.931Z,98556.53
2022-08-02T00:27:09.517Z,98558.50
2022-08-02T00:29:50.406Z,98565.56
2022-08-02T00:32:20.298Z,98570.28
2022-08-02T00:34:46.811Z,98572.91
2022-08-02T00:37:13.482Z,98572.38
2022-08-02T00:39:40.002Z,98569.28
2022-08-02T00:42:06.655Z,98575.69
2022-08-02T00:44:33.160Z,98583.00
2022-08-02T00:47:00.057Z,98572.09
2022-08-02T00:49:26.753Z,98580.53
2022-08-02T00:51:53.328Z,98569.31
2022-08-02T00:54:20.620Z,98568.84
2022-08-02T00:56:49.822Z,98563.09
2022-08-02T00:59:17.565Z,98565.84
2022-08-02T01:01:56.279Z,98558.03
2022-08-02T01:04:30.635Z,98564.53
2022-08-02T01:06:58.408Z,98566.28
2022-08-02T01:09:25.438Z,98560.06
2022-08-02T01:11:51.963Z,98563.81
2022-08-02T01:14:18.578Z,98569.38
2022-08-02T01:16:58.326Z,98564.59
2022-08-02T01:19:33.080Z,98556.88
2022-08-02T01:22:20.995Z,98565.34
2022-08-02T01:24:53.851Z,98567.69
2022-08-02T01:28:01.703Z,98563.94
2022-08-02T01:30:28.309Z,98563.00
2022-08-02T01:32:57.737Z,98559.22
2022-08-02T01:35:50.543Z,98566.97
2022-08-02T01:38:22.261Z,98559.72
2022-08-02T01:40:48.762Z,98553.91
2022-08-02T01:43:15.269Z,98562.69
2022-08-02T01:45:41.806Z,98559.91
2022-08-02T01:48:08.312Z,98566.09
2022-08-02T01:50:35.442Z,98567.16
2022-08-02T01:53:05.684Z,98570.31
2022-08-02T01:55:35.328Z,98571.66
2022-08-02T01:58:19.974Z,98575.00
2022-08-02T02:00:47.113Z,98571.19
2022-08-02T02:03:14.786Z,98566.91
2022-08-02T02:05:41.312Z,98565.28
2022-08-02T02:08:08.277Z,98563.13
2022-08-02T02:10:38.573Z,98568.50
2022-08-02T02:13:07.885Z,98561.97
2022-08-02T02:15:34.648Z,98568.06
2022-08-02T02:18:12.987Z,98568.06
2022-08-02T02:20:40.832Z,98558.28
2022-08-02T02:23:07.315Z,98562.38
2022-08-02T02:25:36.490Z,98565.34
2022-08-02T02:28:12.328Z,98564.88
2022-08-02T02:30:40.232Z,98561.00
2022-08-02T02:33:07.109Z,98562.56
2022-08-02T02:35:36.809Z,98558.50
2022-08-02T02:38:06.481Z,98557.63
2022-08-02T02:40:33.185Z,98554.38
2022-08-02T02:43:00.083Z,98546.09
2022-08-02T02:45:26.865Z,98537.81
2022-08-02T02:47:53.774Z,98542.00
2022-08-02T02:50:21.643Z,98544.41
2022-08-02T02:52:48.413Z,98538.09
2022-08-02T02:55:14.937Z,98532.41
2022-08-02T02:57:41.472Z,98528.44
2022-08-02T03:00:12.402Z,98536.38
2022-08-02T03:02:39.380Z,98533.88
2022-08-02T03:05:09.443Z,98528.94
2022-08-02T03:07:36.012Z,98524.97
2022-08-02T03:10:06.551Z,98528.50
2022-08-02T03:12:33.860Z,98527.69
2022-08-02T03:15:01.512Z,98527.16
2022-08-02T03:17:38.689Z,98527.16
2022-08-02T03:20:11.371Z,98525.97
2022-08-02T03:22:37.873Z,98525.81
2022-08-02T03:25:04.637Z,98525.09
2022-08-02T03:27:31.136Z,98525.28
2022-08-02T03:29:57.624Z,98528.22
2022-08-02T03:32:24.129Z,98528.44
2022-08-02T03:34:50.638Z,98522.63
2022-08-02T03:37:17.132Z,98527.03
2022-08-02T03:39:53.165Z,98525.78
2022-08-02T03:42:20.875Z,98532.25
2022-08-02T03:44:48.201Z,98533.50
2022-08-02T03:47:14.759Z,98532.78
2022-08-02T03:49:41.578Z,98536.66
2022-08-02T03:52:08.334Z,98530.09
2022-08-02T03:54:45.272Z,98530.09
2022-08-02T03:57:12.550Z,98533.75
2022-08-02T03:59:45.561Z,98528.13
2022-08-02T04:02:12.789Z,98528.75
2022-08-02T04:04:39.787Z,98524.94
2022-08-02T04:07:07.583Z,98520.25
2022-08-02T04:09:34.283Z,98528.53
2022-08-02T04:12:00.782Z,98524.66
2022-08-02T04:14:27.302Z,98521.50
2022-08-02T04:17:02.044Z,98530.00
2022-08-02T04:19:32.764Z,98519.94
2022-08-02T04:22:00.245Z,98527.63
2022-08-02T04:24:32.280Z,98529.25
2022-08-02T04:27:06.670Z,98530.78
2022-08-02T04:29:47.077Z,98527.25
2022-08-02T04:32:14.360Z,98525.66
2022-08-02T04:34:44.860Z,98518.81
2022-08-02T04:37:16.983Z,98530.00
2022-08-02T04:39:43.705Z,98527.94
2022-08-02T04:42:10.424Z,98522.84
2022-08-02T04:44:37.108Z,98531.88
2022-08-02T04:47:06.849Z,98535.38
2022-08-02T04:49:33.626Z,98528.34
2022-08-02T04:52:01.027Z,98538.03
2022-08-02T04:54:27.628Z,98535.22
2022-08-02T04:56:54.140Z,98531.38
2022-08-02T04:59:20.830Z,98535.97
2022-08-02T05:01:47.366Z,98532.31
2022-08-02T05:04:13.910Z,98535.34
2022-08-02T05:06:40.444Z,98534.69
2022-08-02T05:09:06.951Z,98524.25
2022-08-02T05:11:34.711Z,98531.38
2022-08-02T05:14:04.262Z,98525.38
2022-08-02T05:16:31.881Z,98532.25
2022-08-02T05:19:02.012Z,98534.34
2022-08-02T05:21:29.107Z,98529.56
2022-08-02T05:23:55.661Z,98529.81
2022-08-02T05:26:22.212Z,98537.41
2022-08-02T05:28:48.808Z,98539.06
2022-08-02T05:31:15.345Z,98533.53
2022-08-02T05:33:41.855Z,98540.75
2022-08-02T05:36:09.504Z,98540.59
2022-08-02T05:38:37.424Z,98529.06
2022-08-02T05:41:07.159Z,98540.22
2022-08-02T05:43:33.667Z,98541.06
2022-08-02T05:46:00.216Z,98532.84
2022-08-02T05:48:31.489Z,98543.34
2022-08-02T05:51:12.289Z,98544.31
2022-08-02T05:53:41.630Z,98548.84
2022-08-02T05:56:35.794Z,98544.84
2022-08-02T05:59:08.952Z,98551.00
2022-08-02T06:01:38.109Z,98553.78
2022-08-02T06:04:11.618Z,98560.06
2022-08-02T06:06:38.242Z,98558.97
2022-08-02T06:09:09.286Z,98562.75
2022-08-02T06:11:37.451Z,98567.22
2022-08-02T06:14:07.446Z,98574.09
2022-08-02T06:16:42.193Z,98568.47
2022-08-02T06:19:09.609Z,98566.88
2022-08-02T06:22:32.484Z,98566.47
2022-08-02T06:24:22.764Z,98565.28
2022-08-02T06:26:52.685Z,98570.09
2022-08-02T06:29:19.248Z,98562.84
2022-08-02T06:31:46.050Z,98555.25
2022-08-02T06:34:12.550Z,98565.72
2022-08-02T06:36:58.885Z,98558.09
2022-08-02T06:39:30.883Z,98570.16
2022-08-02T06:41:59.804Z,98581.41
2022-08-02T06:47:13.794Z,98586.22
2022-08-02T06:49:52.326Z,98577.38
2022-08-02T06:52:28.936Z,98576.56
2022-08-02T06:54:57.225Z,98589.41
2022-08-02T06:57:23.771Z,98584.16
2022-08-02T06:59:50.285Z,98582.13
2022-08-02T07:02:16.802Z,98578.16
2022-08-02T07:04:43.311Z,98572.91
2022-08-02T07:07:09.839Z,98577.34
2022-08-02T07:09:36.336Z,98566.84
2022-08-02T07:12:02.908Z,98556.38
2022-08-02T07:14:29.416Z,98550.88
2022-08-02T07:16:55.947Z,98557.28
2022-08-02T07:19:28.594Z,98560.09
2022-08-02T07:22:04.262Z,98555.22
2022-08-02T07:24:30.849Z,98554.78
2022-08-02T07:27:13.725Z,98548.78
2022-08-02T07:29:46.601Z,98552.75
2022-08-02T07:32:24.611Z,98548.72
2022-08-02T07:34:53.442Z,98540.66
2022-08-02T07:37:54.267Z,98534.94
2022-08-02T07:40:14.017Z,98524.59
2022-08-02T07:42:42.833Z,98533.88
2022-08-02T07:45:09.784Z,98543.50
2022-08-02T07:47:38.104Z,98546.44
2022-08-02T07:50:05.369Z,98542.69
2022-08-02T07:52:31.896Z,98538.16
2022-08-02T07:54:58.447Z,98551.63
2022-08-02T07:57:25.181Z,98558.25
2022-08-02T07:59:51.872Z,98560.19
2022-08-02T08:02:18.357Z,98559.47
2022-08-02T08:04:44.868Z,98563.31
2022-08-02T08:07:11.880Z,98546.19
2022-08-02T08:09:41.717Z,98556.44
2022-08-02T08:12:09.362Z,98543.47
2022-08-02T08:14:36.302Z,98537.81
2022-08-02T08:17:03.482Z,98537.34
2022-08-02T08:19:50.278Z,98544.34
2022-08-02T08:22:16.466Z,98540.13
2022-08-02T08:24:42.985Z,98541.09
2022-08-02T08:27:14.434Z,98548.00
2022-08-02T08:29:42.436Z,98544.97
2022-08-02T08:32:14.181Z,98549.34
2022-08-02T08:34:43.099Z,98540.75
2022-08-02T08:37:09.631Z,98538.09
2022-08-02T08:39:57.177Z,98532.75
2022-08-02T08:42:29.149Z,98539.72
2022-08-02T08:44:56.585Z,98534.19
2022-08-02T08:47:23.922Z,98541.47
2022-08-02T08:49:53.363Z,98545.44
2022-08-02T08:52:20.244Z,98535.31
2022-08-02T08:54:48.442Z,98539.25
2022-08-02T08:57:15.218Z,98544.75
2022-08-02T08:59:42.669Z,98535.06
2022-08-02T09:02:17.834Z,98525.66
2022-08-02T09:04:54.722Z,98535.34
2022-08-02T09:07:21.779Z,98535.19
2022-08-02T09:09:48.294Z,98549.41
2022-08-02T09:12:19.538Z,98544.16
2022-08-02T09:14:46.605Z,98538.88
2022-08-02T09:17:17.128Z,98532.44
2022-08-02T09:19:45.651Z,98531.63
2022-08-02T09:22:13.399Z,98541.50
2022-08-02T09:24:48.023Z,98530.63
2022-08-02T09:27:18.970Z,98544.97
2022-08-02T09:30:11.442Z,98534.28
2022-08-02T09:32:40.459Z,98534.28
2022-08-02T09:35:07.594Z,98543.38
2022-08-02T09:37:34.121Z,98538.69
2022-08-02T09:40:02.727Z,98527.28
2022-08-02T09:42:30.810Z,98532.84
2022-08-02T09:44:59.237Z,98539.28
2022-08-02T09:47:26.259Z,98530.78
2022-08-02T09:49:56.415Z,98542.72
2022-08-02T09:52:37.176Z,98540.94
2022-08-02T09:55:11.309Z,98531.13
2022-08-02T09:57:40.775Z,98529.63
2022-08-02T10:00:14.851Z,98533.72
2022-08-02T10:03:11.114Z,98531.78
2022-08-02T10:05:56.316Z,98528.31
2022-08-02T10:08:29.305Z,98532.84
2022-08-02T10:11:02.163Z,98526.88
2022-08-02T10:13:33.588Z,98517.13
2022-08-02T10:16:00.182Z,98529.50
2022-08-02T10:18:38.950Z,98529.13
2022-08-02T10:21:07.711Z,98526.25
2022-08-02T10:23:34.415Z,98527.88
2022-08-02T10:26:01.042Z,98523.16
2022-08-02T10:28:33.357Z,98526.56
2022-08-02T10:31:01.178Z,98528.50
2022-08-02T10:33:31.278Z,98518.09
2022-08-02T10:36:04.227Z,98520.19
2022-08-02T10:38:34.079Z,98512.16
2022-08-02T10:41:00.891Z,98518.22
2022-08-02T10:43:36.562Z,98514.09
2022-08-02T10:46:24.123Z,98512.06
2022-08-02T10:49:37.995Z,98513.88
2022-08-02T10:52:02.916Z,98513.25
2022-08-02T10:54:39.380Z,98513.22
2022-08-02T10:57:23.131Z,98526.84
2022-08-02T10:59:51.346Z,98522.19
2022-08-02T11:02:38.005Z,98516.56
2022-08-02T11:05:12.478Z,98511.75
2022-08-02T11:07:41.423Z,98507.59
2022-08-02T11:10:25.978Z,98515.16
2022-08-02T11:13:11.380Z,98512.97
2022-08-02T11:16:01.963Z,98510.81
2022-08-02T11:18:46.646Z,98511.69
2022-08-02T11:21:26.420Z,98522.53
2022-08-02T11:23:52.982Z,98516.38
2022-08-02T11:26:31.597Z,98528.84
2022-08-02T11:28:59.035Z,98514.59
2022-08-02T11:31:25.544Z,98520.91
2022-08-02T11:33:52.208Z,98515.75
2022-08-02T11:36:18.698Z,98522.63
2022-08-02T11:38:45.397Z,98530.53
2022-08-02T11:41:46.622Z,98524.59
2022-08-02T11:44:08.257Z,98517.72
2022-08-02T11:46:34.873Z,98526.16
2022-08-02T11:49:15.507Z,98524.78
2022-08-02T11:52:02.083Z,98510.69
2022-08-02T11:54:30.372Z,98503.88
2022-08-02T11:57:19.898Z,98494.28
2022-08-02T11:59:49.362Z,98491.59
2022-08-02T12:02:16.014Z,98499.56
2022-08-02T12:04:42.629Z,98505.28
2022-08-02T12:07:10.683Z,98502.94
2022-08-02T12:09:41.028Z,98495.81
2022-08-02T12:12:07.916Z,98491.88
2022-08-02T12:14:34.813Z,98497.56
2022-08-02T12:17:19.883Z,98489.66
2022-08-02T12:19:47.886Z,98500.56
2022-08-02T12:22:18.424Z,98485.28
2022-08-02T12:24:49.445Z,98492.13
2022-08-02T12:27:36.315Z,98497.06
2022-08-02T12:30:09.087Z,98505.16
2022-08-02T12:32:36.099Z,98495.22
2022-08-02T12:35:07.038Z,98494.16
2022-08-02T12:37:33.570Z,98497.44
2022-08-02T12:40:24.847Z,98499.47
2022-08-02T12:42:54.751Z,98489.59
2022-08-02T12:45:21.276Z,98487.94
2022-08-02T12:47:49.516Z,98488.22
2022-08-02T12:50:32.542Z,98489.63
2022-08-02T12:53:12.240Z,98485.19
2022-08-02T12:56:01.579Z,98480.75
2022-08-02T12:58:30.948Z,98477.19
2022-08-02T13:00:59.039Z,98474.81
2022-08-02T13:04:09.606Z,98481.97
2022-08-02T13:06:39.546Z,98485.41
2022-08-02T13:08:58.664Z,98474.34
2022-08-02T13:11:25.254Z,98475.81
2022-08-02T13:13:51.816Z,98473.06
2022-08-02T13:16:18.318Z,98466.66
2022-08-02T13:18:57.481Z,98462.44
2022-08-02T13:21:40.926Z,98456.50
2022-08-02T13:24:33.201Z,98454.34
2022-08-02T13:26:57.762Z,98453.69
2022-08-02T13:29:25.750Z,98444.84
2022-08-02T13:31:52.321Z,98449.50
2022-08-02T13:34:18.863Z,98441.19
2022-08-02T13:36:45.375Z,98439.34
2022-08-02T13:39:12.691Z,98446.03
2022-08-02T13:41:39.218Z,98431.97
2022-08-02T13:44:10.226Z,98437.41
2022-08-02T13:46:39.751Z,98440.97
2022-08-02T13:49:17.811Z,98432.06
2022-08-02T13:51:45.479Z,98433.63
2022-08-02T13:54:11.993Z,98435.41
2022-08-02T13:56:38.488Z,98429.94
2022-08-02T13:59:54.109Z,98428.63
2022-08-02T14:01:52.112Z,98416.22
2022-08-02T14:04:18.708Z,98420.72
2022-08-02T14:06:45.200Z,98420.59
2022-08-02T14:09:15.781Z,98411.91
2022-08-02T14:11:43.933Z,98421.13
2022-08-02T14:14:16.531Z,98414.38
2022-08-02T14:16:45.089Z,98406.00
2022-08-02T14:19:16.813Z,98397.78
2022-08-02T14:21:45.930Z,98401.25
2022-08-02T14:24:14.957Z,98391.75
2022-08-02T14:26:41.461Z,98402.66
2022-08-02T14:29:07.967Z,98408.41
2022-08-02T14:31:34.474Z,98406.50
2022-08-02T14:34:01.022Z,98402.97
2022-08-02T14:36:28.175Z,98399.28
2022-08-02T14:38:55.399Z,98396.84
2022-08-02T14:41:22.019Z,98385.78
2022-08-02T14:44:09.963Z,98383.78
2022-08-02T14:46:38.465Z,98391.09
2022-08-02T14:49:05.332Z,98394.81
2022-08-02T14:51:32.031Z,98390.16
2022-08-02T14:54:03.140Z,98384.00
2022-08-02T14:56:30.063Z,98380.16
2022-08-02T14:58:56.629Z,98376.69
2022-08-02T15:01:25.859Z,98372.47
2022-08-02T15:03:52.804Z,98371.31
2022-08-02T15:06:19.425Z,98372.53
2022-08-02T15:08:45.932Z,98374.75
2022-08-02T15:11:12.456Z,98373.47
2022-08-02T15:13:42.482Z,98366.03
2022-08-02T15:16:09.392Z,98371.28
2022-08-02T15:18:35.893Z,98372.38
2022-08-02T15:21:13.433Z,98368.91
2022-08-02T15:23:48.969Z,98361.38
2022-08-02T15:26:15.507Z,98365.16
2022-08-02T15:28:41.999Z,98358.81
2022-08-02T15:31:08.534Z,98361.09
2022-08-02T15:33:35.034Z,98360.75
2022-08-02T15:36:01.610Z,98363.44
2022-08-02T15:38:28.249Z,98364.56
2022-08-02T15:40:54.770Z,98367.53
2022-08-02T15:43:21.579Z,98366.00
2022-08-02T15:45:48.102Z,98369.88
2022-08-02T15:48:14.674Z,98369.25
2022-08-02T15:50:41.210Z,98363.50
2022-08-02T15:53:07.710Z,98359.97
2022-08-02T15:55:52.653Z,98362.66
2022-08-02T15:58:22.499Z,98366.13
2022-08-02T16:00:49.432Z,98364.25
2022-08-02T16:03:15.934Z,98362.59
2022-08-02T16:05:42.507Z,98357.25
2022-08-02T16:08:09.010Z,98361.69
2022-08-02T16:10:35.555Z,98349.84
2022-08-02T16:13:20.631Z,98353.94
2022-08-02T16:15:47.142Z,98350.31
2022-08-02T16:18:13.687Z,98342.50
2022-08-02T16:20:40.393Z,98353.41
2022-08-02T16:23:06.892Z,98346.41
2022-08-02T16:25:33.420Z,98343.56
2022-08-02T16:28:07.000Z,98341.03
2022-08-02T16:30:34.497Z,98337.06
2022-08-02T16:33:01.094Z,98337.84
2022-08-02T16:35:28.283Z,98340.09
2022-08-02T16:37:54.880Z,98335.09
2022-08-02T16:40:21.988Z,98340.91
2022-08-02T16:42:50.241Z,98332.38
2022-08-02T16:45:21.269Z,98334.78
2022-08-02T16:47:55.202Z,98315.47
2022-08-02T16:50:27.257Z,98321.97
2022-08-02T16:52:53.993Z,98311.38
2022-08-02T16:55:22.021Z,98314.38
2022-08-02T16:57:50.125Z,98308.75
2022-08-02T17:00:17.255Z,98313.03
2022-08-02T17:02:44.144Z,98303.09
2022-08-02T17:05:14.611Z,98309.03
2022-08-02T17:08:07.264Z,98302.06
2022-08-02T17:10:29.253Z,98299.75
2022-08-02T17:13:11.067Z,98299.50
2022-08-02T17:16:08.352Z,98293.91
2022-08-02T17:18:26.351Z,98300.31
2022-08-02T17:21:12.002Z,98303.69
2022-08-02T17:24:02.711Z,98297.34
2022-08-02T17:26:25.052Z,98300.94
2022-08-02T17:29:16.318Z,98297.28
2022-08-02T17:31:43.697Z,98298.31
2022-08-02T17:34:13.166Z,98297.44
2022-08-02T17:36:43.173Z,98296.09
2022-08-02T17:39:09.668Z,98295.28
2022-08-02T17:44:37.343Z,98295.47
2022-08-02T17:47:06.411Z,98291.81
2022-08-02T17:49:37.183Z,98291.63
2022-08-02T17:52:49.577Z,98295.47
2022-08-02T17:54:57.130Z,98290.94
2022-08-02T17:57:23.989Z,98297.06
2022-08-02T18:00:11.150Z,98283.84
2022-08-02T18:02:38.979Z,98276.56
2022-08-02T18:05:05.795Z,98280.41
2022-08-02T18:07:50.895Z,98282.13
2022-08-02T18:10:22.064Z,98282.34
2022-08-02T18:12:50.103Z,98282.66
2022-08-02T18:15:17.722Z,98287.06
2022-08-02T18:17:46.824Z,98281.63
2022-08-02T18:20:13.453Z,98282.13
2022-08-02T18:22:43.115Z,98279.09
2022-08-02T18:25:36.489Z,98281.19
2022-08-02T18:27:58.372Z,98278.59
2022-08-02T18:30:28.118Z,98288.69
2022-08-02T18:33:58.090Z,98282.94
2022-08-02T18:35:42.603Z,98283.47
2022-08-02T18:38:11.754Z,98282.56
2022-08-02T18:40:38.761Z,98285.41
2022-08-02T18:43:07.141Z,98273.94
2022-08-02T18:46:04.807Z,98273.56
2022-08-02T18:48:20.954Z,98278.53
2022-08-02T18:50:48.397Z,98281.44
2022-08-02T18:53:16.745Z,98286.41
2022-08-02T18:55:59.900Z,98286.41
2022-08-02T18:58:30.204Z,98277.69
2022-08-02T19:00:57.625Z,98279.53
2022-08-02T19:03:25.689Z,98274.09
2022-08-02T19:05:54.079Z,98281.47
2022-08-02T19:08:26.345Z,98276.72
2022-08-02T19:10:56.280Z,98278.78
2022-08-02T19:13:23.853Z,98283.72
2022-08-02T19:15:50.442Z,98283.00
2022-08-02T19:18:16.984Z,98280.84
2022-08-02T19:20:48.047Z,98289.22
2022-08-02T19:23:15.227Z,98287.75
2022-08-02T19:25:50.200Z,98296.03
2022-08-02T19:28:26.382Z,98292.09
2022-08-02T19:30:54.086Z,98294.38
2022-08-02T19:33:54.350Z,98296.25
2022-08-02T19:36:07.178Z,98295.50
2022-08-02T19:38:33.693Z,98290.38
2022-08-02T19:41:01.551Z,98294.03
2022-08-02T19:44:27.559Z,98296.50
2022-08-02T19:46:15.778Z,98298.13
2022-08-02T19:48:42.676Z,98298.44
2022-08-02T19:51:12.979Z,98302.88
2022-08-02T19:53:47.299Z,98309.16
2022-08-02T19:56:20.838Z,98308.72
2022-08-02T19:58:51.977Z,98312.31
2022-08-02T20:01:23.585Z,98313.78
2022-08-02T20:03:54.126Z,98311.03
2022-08-02T20:06:29.585Z,98311.56
2022-08-02T20:08:58.879Z,98308.69
2022-08-02T20:11:25.936Z,98310.25
2022-08-02T20:13:53.433Z,98315.53
2022-08-02T20:16:27.640Z,98314.75
2022-08-02T20:18:56.297Z,98318.75
2022-08-02T20:21:35.529Z,98320.00
2022-08-02T20:24:05.693Z,98318.84
2022-08-02T20:26:32.226Z,98314.69
2022-08-02T20:29:02.523Z,98311.88
2022-08-02T20:31:29.862Z,98313.97
2022-08-02T20:33:56.870Z,98311.97
2022-08-02T20:36:24.430Z,98314.47
2022-08-02T20:38:50.967Z,98308.34
2022-08-02T20:41:21.392Z,98317.22
2022-08-02T20:43:48.642Z,98315.94
2022-08-02T20:46:15.400Z,98314.72
2022-08-02T20:48:41.979Z,98316.41
2022-08-02T20:51:09.878Z,98315.72
2022-08-02T20:53:54.757Z,98313.03
2022-08-02T20:56:25.234Z,98320.31
2022-08-02T20:58:52.608Z,98314.59
2022-08-02T21:01:21.220Z,98320.56
2022-08-02T21:04:06.581Z,98310.84
2022-08-02T21:06:33.143Z,98308.31
2022-08-02T21:08:59.700Z,98314.31
2022-08-02T21:11:33.531Z,98315.06
2022-08-02T21:14:07.719Z,98313.75
2022-08-02T21:16:36.386Z,98313.38
2022-08-02T21:21:49.909Z,98309.47
2022-08-02T21:24:17.390Z,98312.66
2022-08-02T21:26:48.605Z,98309.91
2022-08-02T21:29:15.305Z,98309.25
2022-08-02T21:31:42.260Z,98314.13
2022-08-02T21:34:26.472Z,98312.13
2022-08-02T21:36:54.017Z,98315.47
2022-08-02T21:39:20.751Z,98308.28
2022-08-02T21:41:47.496Z,98311.44
2022-08-02T21:44:18.331Z,98314.72
2022-08-02T21:46:49.836Z,98301.97
2022-08-02T21:49:20.752Z,98302.28
2022-08-02T21:51:49.387Z,98311.53
2022-08-02T21:54:20.918Z,98301.03
2022-08-02T21:56:49.137Z,98305.44
2022-08-02T21:59:17.407Z,98304.19
2022-08-02T22:01:52.746Z,98313.09
2022-08-02T22:04:21.399Z,98309.88
2022-08-02T22:06:49.021Z,98309.44
2022-08-02T22:09:17.802Z,98312.31
2022-08-02T22:12:04.228Z,98314.72
2022-08-02T22:14:33.242Z,98315.09
2022-08-02T22:16:59.737Z,98316.31
2022-08-02T22:19:26.451Z,98320.44
2022-08-02T22:21:56.564Z,98320.44
2022-08-02T22:24:30.021Z,98316.84
2022-08-02T22:26:57.060Z,98323.63
2022-08-02T22:29:23.554Z,98330.03
2022-08-02T22:31:50.084Z,98328.03
2022-08-02T22:34:36.847Z,98321.22
2022-08-02T22:37:07.403Z,98326.91
2022-08-02T22:39:34.259Z,98323.81
2022-08-02T22:42:05.223Z,98337.44
2022-08-02T22:44:33.860Z,98328.66
2022-08-02T22:47:03.953Z,98330.66
2022-08-02T22:49:38.434Z,98326.66
2022-08-02T22:52:21.173Z,98324.66
2022-08-02T22:54:47.884Z,98324.63
2022-08-02T22:57:14.388Z,98328.69
2022-08-02T22:58:48.914Z,98300.44
2022-08-02T22:59:41.450Z,98333.50
2022-08-02T23:02:08.918Z,98336.31
2022-08-02T23:04:36.572Z,98328.28
2022-08-02T23:07:03.182Z,98323.50
2022-08-02T23:09:29.678Z,98322.22
2022-08-02T23:11:56.205Z,98324.97
2022-08-02T23:14:22.741Z,98318.03
2022-08-02T23:17:08.545Z,98321.97
2022-08-02T23:19:52.995Z,98323.97
2022-08-02T23:22:29.909Z,98315.97
2022-08-02T23:24:59.213Z,98314.75
2022-08-02T23:27:25.750Z,98307.63
2022-08-02T23:29:52.252Z,98314.88
2022-08-02T23:32:18.910Z,98310.81
2022-08-02T23:34:50.088Z,98318.97
2022-08-02T23:37:16.603Z,98310.22
2022-08-02T23:39:43.146Z,98311.00
2022-08-02T23:42:09.754Z,98319.75
2022-08-02T23:44:36.304Z,98313.28
2022-08-02T23:47:02.861Z,98312.19
2022-08-02T23:49:29.394Z,98320.66
2022-08-02T23:52:01.231Z,98309.38
2022-08-02T23:54:28.722Z,98315.06
2022-08-02T23:56:55.663Z,98321.50
2022-08-02T23:59:22.249Z,98321.13
